Aplicació Alertes

Dades de l'estació automàtica Castellnou de Bages

?
?
Resum diari 22:30 TU
Dades diàries de l'estació meteorològica
Temperatura mitjana 3.3 °C
Temperatura màxima 9.7 °C 13:13 TU
Temperatura mínima -1.9 °C 6:23 TU
Humitat relativa mitjana 54%
Precipitació acumulada 0.0 mm
Ratxa màxima del vent (10 m) 38.9 km/h - 263º 14:36 TU
Irradiació solar global 9.1 MJ/m2

El tram horari està expressat en Temps Universal (TU). Cal sumar una hora en horari d'hivern i dues en horari d'estiu per passar a l'hora oficial.

Castellnou de Bages

Metadades estació meteorol´gica
Municipi Castellnou de Bages
Comarca Bages
Altitud 507 m
Data alta 22.01.1998
Estat actual Operativa
Dades de període
Període
TU
TM
°C
TX
°C
TN
°C
HRM
%
PPT
mm
VVM (10 m)
km/h
DVM (10 m)
graus
VVX (10 m)
km/h
RS
W/m2
00:00 - 00:30 3.5 3.9 2.7 41 0.0 6.8 289 13.0 0
00:30 - 01:00 2.6 3.8 0.9 44 0.0 4.7 251 11.5 0
01:00 - 01:30 1.6 2.6 0.8 48 0.0 3.6 258 8.6 0
01:30 - 02:00 1.8 2.2 1.1 47 0.0 2.9 309 9.0 0
02:00 - 02:30 1.0 1.3 0.5 50 0.0 4.7 25 10.1 0
02:30 - 03:00 0.6 1.6 0.2 51 0.0 8.3 33 13.0 0
03:00 - 03:30 0.8 1.7 -0.4 50 0.0 9.0 37 15.5 0
03:30 - 04:00 -0.1 0.5 -0.6 53 0.0 5.4 7 11.9 0
04:00 - 04:30 1.5 2.0 0.4 46 0.0 7.6 339 13.0 0
04:30 - 05:00 -0.3 1.5 -0.9 54 0.0 4.7 137 10.4 0
05:00 - 05:30 -1.1 -0.6 -1.6 61 0.0 3.6 238 8.3 0
05:30 - 06:00 -0.9 -0.6 -1.1 64 0.0 5.4 225 11.5 0
06:00 - 06:30 -1.6 -1.1 -1.9 70 0.0 4.3 177 11.5 0
06:30 - 07:00 -1.1 -0.9 -1.5 70 0.0 4.7 270 13.7 0
07:00 - 07:30 -0.4 0.1 -1.4 72 0.0 9.7 286 19.8 6
07:30 - 08:00 0.4 0.6 -0.2 72 0.0 12.2 292 24.1 54
08:00 - 08:30 0.8 1.3 0.6 70 0.0 6.8 229 18.4 128
08:30 - 09:00 1.7 2.2 1.3 68 0.0 8.3 253 19.1 205
09:00 - 09:30 2.7 3.3 2.2 63 0.0 10.8 255 23.4 276
09:30 - 10:00 3.5 4.0 2.9 60 0.0 8.6 264 20.9 339
10:00 - 10:30 4.5 5.0 4.0 58 0.0 13.0 252 23.0 390
10:30 - 11:00 5.3 5.8 4.8 53 0.0 9.7 302 25.9 428
11:00 - 11:30 6.3 7.0 5.7 49 0.0 11.5 269 20.5 455
11:30 - 12:00 6.9 7.4 6.5 48 0.0 11.2 269 19.8 464
12:00 - 12:30 7.6 8.2 7.2 46 0.0 10.4 248 19.1 467
12:30 - 13:00 8.6 9.2 7.9 42 0.0 8.6 227 20.5 445
13:00 - 13:30 9.2 9.7 8.5 37 0.0 14.0 239 33.5 398
13:30 - 14:00 8.8 9.0 8.4 34 0.0 20.9 258 36.0 351
14:00 - 14:30 8.6 9.0 8.1 36 0.0 20.2 263 38.5 289
14:30 - 15:00 7.7 8.1 7.5 43 0.0 23.0 267 38.9 219
15:00 - 15:30 7.2 7.6 6.9 45 0.0 18.4 275 36.7 145
15:30 - 16:00 6.6 6.9 6.3 46 0.0 18.7 275 34.6 70
16:00 - 16:30 5.7 6.2 5.1 49 0.0 16.2 275 30.2 14
16:30 - 17:00 4.9 5.0 4.8 54 0.0 14.4 274 27.4 0
17:00 - 17:30 4.7 5.0 4.5 53 0.0 14.0 269 26.3 0
17:30 - 18:00 4.5 4.6 4.3 52 0.0 15.8 264 31.0 0
18:00 - 18:30 4.3 4.5 4.1 53 0.0 9.0 269 22.3 0
18:30 - 19:00 4.2 4.3 4.0 55 0.0 6.1 285 18.4 0
19:00 - 19:30 4.0 4.2 3.7 57 0.0 6.5 286 15.8 0
19:30 - 20:00 3.5 3.8 3.2 58 0.0 4.3 357 11.5 0
20:00 - 20:30 2.8 3.6 2.4 60 0.0 4.3 11 9.4 0
20:30 - 21:00 2.6 3.3 1.9 61 0.0 4.3 297 10.4 0
21:00 - 21:30 2.0 2.3 1.7 64 0.0 2.2 83 8.6 0
21:30 - 22:00 1.4 1.6 1.2 64 0.0 6.1 24 13.0 0
22:00 - 22:30 1.7 1.9 1.5 63 0.0 6.8 12 11.9 0
22:30 - 23:00 1.4 1.6 1.0 65 0.0 7.2 13 11.2 0
23:00 - 23:30 (s/d) (s/d) (s/d) (s/d) (s/d) (s/d) (s/d) (s/d) (s/d)

Les dades en taronja només han passat un control de qualitat automàtic. Resta pendent la seva validació definitiva.